sensor_id;sensor_type;location;lat;lon;timestamp;pressure;altitude;pressure_sealevel;temperature;humidity
65173;BME280;51758;52.218;5.172;2023-01-09T00:02:15;98011.53;;;6.42;100.00
65173;BME280;51758;52.218;5.172;2023-01-09T00:04:43;98016.00;;;6.35;100.00
65173;BME280;51758;52.218;5.172;2023-01-09T00:07:10;98006.44;;;6.35;100.00
65173;BME280;51758;52.218;5.172;2023-01-09T00:09:38;98012.41;;;6.36;100.00
65173;BME280;51758;52.218;5.172;2023-01-09T00:12:05;98024.00;;;6.33;100.00
65173;BME280;51758;52.218;5.172;2023-01-09T00:14:33;98023.28;;;6.26;100.00
65173;BME280;51758;52.218;5.172;2023-01-09T00:17:01;98015.53;;;6.26;100.00
65173;BME280;51758;52.218;5.172;2023-01-09T00:19:30;98017.00;;;6.34;100.00
65173;BME280;51758;52.218;5.172;2023-01-09T00:21:57;98016.31;;;6.27;100.00
65173;BME280;51758;52.218;5.172;2023-01-09T00:24:25;98015.47;;;6.15;100.00
65173;BME280;51758;52.218;5.172;2023-01-09T00:26:52;98018.06;;;6.15;100.00
65173;BME280;51758;52.218;5.172;2023-01-09T00:29:20;98021.66;;;6.14;100.00
65173;BME280;51758;52.218;5.172;2023-01-09T00:31:47;98023.31;;;6.08;100.00
65173;BME280;51758;52.218;5.172;2023-01-09T00:34:15;98012.72;;;6.09;100.00
65173;BME280;51758;52.218;5.172;2023-01-09T00:36:44;98014.91;;;6.13;100.00
65173;BME280;51758;52.218;5.172;2023-01-09T00:39:12;98021.16;;;6.05;100.00
65173;BME280;51758;52.218;5.172;2023-01-09T00:41:41;98026.00;;;6.01;100.00
65173;BME280;51758;52.218;5.172;2023-01-09T00:44:13;98025.03;;;5.96;100.00
65173;BME280;51758;52.218;5.172;2023-01-09T00:46:44;98017.84;;;5.98;100.00
65173;BME280;51758;52.218;5.172;2023-01-09T00:49:13;98013.34;;;5.93;100.00
65173;BME280;51758;52.218;5.172;2023-01-09T00:51:41;98018.06;;;5.96;100.00
65173;BME280;51758;52.218;5.172;2023-01-09T00:54:13;98020.53;;;5.91;100.00
65173;BME280;51758;52.218;5.172;2023-01-09T00:56:42;98028.28;;;5.91;100.00
65173;BME280;51758;52.218;5.172;2023-01-09T00:59:10;98023.53;;;5.88;100.00
65173;BME280;51758;52.218;5.172;2023-01-09T01:01:38;98027.31;;;5.86;100.00
65173;BME280;51758;52.218;5.172;2023-01-09T01:04:06;98033.00;;;5.76;100.00
65173;BME280;51758;52.218;5.172;2023-01-09T01:06:47;98013.94;;;5.70;100.00
65173;BME280;51758;52.218;5.172;2023-01-09T01:09:34;98022.06;;;5.74;100.00
65173;BME280;51758;52.218;5.172;2023-01-09T01:12:02;98019.84;;;5.78;100.00
65173;BME280;51758;52.218;5.172;2023-01-09T01:14:32;98023.94;;;5.67;100.00
65173;BME280;51758;52.218;5.172;2023-01-09T01:17:00;98017.38;;;5.64;100.00
65173;BME280;51758;52.218;5.172;2023-01-09T01:19:28;98015.38;;;5.66;100.00
65173;BME280;51758;52.218;5.172;2023-01-09T01:21:56;98021.06;;;5.57;100.00
65173;BME280;51758;52.218;5.172;2023-01-09T01:24:24;98029.59;;;5.57;100.00
65173;BME280;51758;52.218;5.172;2023-01-09T01:26:53;98024.69;;;5.49;100.00
65173;BME280;51758;52.218;5.172;2023-01-09T01:29:20;98029.50;;;5.46;100.00
65173;BME280;51758;52.218;5.172;2023-01-09T01:31:49;98028.00;;;5.38;100.00
65173;BME280;51758;52.218;5.172;2023-01-09T01:34:17;98031.53;;;5.44;100.00
65173;BME280;51758;52.218;5.172;2023-01-09T01:36:45;98029.63;;;5.32;100.00
65173;BME280;51758;52.218;5.172;2023-01-09T01:39:12;98026.47;;;5.30;100.00
65173;BME280;51758;52.218;5.172;2023-01-09T01:41:40;98032.66;;;5.29;100.00
65173;BME280;51758;52.218;5.172;2023-01-09T01:47:11;98030.47;;;5.26;100.00
65173;BME280;51758;52.218;5.172;2023-01-09T01:49:39;98036.84;;;5.24;100.00
65173;BME280;51758;52.218;5.172;2023-01-09T01:52:07;98036.34;;;5.15;100.00
65173;BME280;51758;52.218;5.172;2023-01-09T01:54:34;98033.09;;;5.20;100.00
65173;BME280;51758;52.218;5.172;2023-01-09T01:57:03;98044.03;;;5.22;100.00
65173;BME280;51758;52.218;5.172;2023-01-09T01:59:36;98042.81;;;5.24;100.00
65173;BME280;51758;52.218;5.172;2023-01-09T02:02:05;98044.00;;;5.28;100.00
65173;BME280;51758;52.218;5.172;2023-01-09T02:04:37;98036.16;;;5.35;100.00
65173;BME280;51758;52.218;5.172;2023-01-09T02:07:08;98040.13;;;5.37;100.00
65173;BME280;51758;52.218;5.172;2023-01-09T02:09:38;98026.38;;;5.44;100.00
65173;BME280;51758;52.218;5.172;2023-01-09T02:12:17;98027.56;;;5.41;100.00
65173;BME280;51758;52.218;5.172;2023-01-09T02:14:46;98036.53;;;5.38;100.00
65173;BME280;51758;52.218;5.172;2023-01-09T02:17:23;98037.25;;;5.46;100.00
65173;BME280;51758;52.218;5.172;2023-01-09T02:20:34;98027.16;;;5.44;100.00
65173;BME280;51758;52.218;5.172;2023-01-09T02:23:34;98021.97;;;5.44;100.00
65173;BME280;51758;52.218;5.172;2023-01-09T02:26:35;98013.63;;;5.60;100.00
65173;BME280;51758;52.218;5.172;2023-01-09T02:29:35;98011.25;;;5.59;100.00
65173;BME280;51758;52.218;5.172;2023-01-09T02:32:17;98004.38;;;5.53;100.00
65173;BME280;51758;52.218;5.172;2023-01-09T02:34:50;98014.34;;;5.49;100.00
65173;BME280;51758;52.218;5.172;2023-01-09T02:37:29;98010.84;;;5.44;100.00
65173;BME280;51758;52.218;5.172;2023-01-09T02:40:04;98009.66;;;5.39;100.00
65173;BME280;51758;52.218;5.172;2023-01-09T02:42:36;98015.63;;;5.40;100.00
65173;BME280;51758;52.218;5.172;2023-01-09T02:45:05;98018.84;;;5.35;100.00
65173;BME280;51758;52.218;5.172;2023-01-09T02:47:37;98011.50;;;5.32;100.00
65173;BME280;51758;52.218;5.172;2023-01-09T02:50:08;98025.69;;;5.30;100.00
65173;BME280;51758;52.218;5.172;2023-01-09T02:52:50;98028.06;;;5.31;100.00
65173;BME280;51758;52.218;5.172;2023-01-09T02:55:30;97973.59;;;5.01;100.00
65173;BME280;51758;52.218;5.172;2023-01-09T02:58:07;98009.00;;;5.26;100.00
65173;BME280;51758;52.218;5.172;2023-01-09T03:00:45;98010.56;;;5.27;100.00
65173;BME280;51758;52.218;5.172;2023-01-09T03:03:21;97971.78;;;5.02;100.00
65173;BME280;51758;52.218;5.172;2023-01-09T03:05:53;98009.63;;;5.21;100.00
65173;BME280;51758;52.218;5.172;2023-01-09T03:08:28;98020.97;;;5.20;100.00
65173;BME280;51758;52.218;5.172;2023-01-09T03:11:00;98013.66;;;5.17;100.00
65173;BME280;51758;52.218;5.172;2023-01-09T03:13:32;98012.41;;;5.20;100.00
65173;BME280;51758;52.218;5.172;2023-01-09T03:16:05;98003.88;;;5.19;100.00
65173;BME280;51758;52.218;5.172;2023-01-09T03:18:36;98013.06;;;5.15;100.00
65173;BME280;51758;52.218;5.172;2023-01-09T03:21:06;98005.72;;;5.12;100.00
65173;BME280;51758;52.218;5.172;2023-01-09T03:23:45;97997.59;;;5.09;100.00
65173;BME280;51758;52.218;5.172;2023-01-09T03:26:13;97993.41;;;5.08;100.00
65173;BME280;51758;52.218;5.172;2023-01-09T03:28:41;97991.06;;;5.06;100.00
65173;BME280;51758;52.218;5.172;2023-01-09T03:31:09;97988.91;;;5.03;100.00
65173;BME280;51758;52.218;5.172;2023-01-09T03:33:38;97992.47;;;5.02;100.00
65173;BME280;51758;52.218;5.172;2023-01-09T03:36:07;97998.66;;;5.01;100.00
65173;BME280;51758;52.218;5.172;2023-01-09T03:38:35;97992.09;;;4.98;100.00
65173;BME280;51758;52.218;5.172;2023-01-09T03:41:03;97989.13;;;4.95;100.00
65173;BME280;51758;52.218;5.172;2023-01-09T03:43:31;97980.66;;;4.88;100.00
65173;BME280;51758;52.218;5.172;2023-01-09T03:45:59;97959.34;;;4.67;100.00
65173;BME280;51758;52.218;5.172;2023-01-09T03:48:27;97991.41;;;4.85;100.00
65173;BME280;51758;52.218;5.172;2023-01-09T03:50:56;97990.25;;;4.81;100.00
65173;BME280;51758;52.218;5.172;2023-01-09T03:53:26;97956.00;;;4.60;100.00
65173;BME280;51758;52.218;5.172;2023-01-09T03:55:56;97984.53;;;4.72;100.00
65173;BME280;51758;52.218;5.172;2023-01-09T03:58:25;97991.09;;;4.75;100.00
65173;BME280;51758;52.218;5.172;2023-01-09T04:00:56;97988.78;;;4.66;100.00
65173;BME280;51758;52.218;5.172;2023-01-09T04:03:25;97959.06;;;4.51;100.00
65173;BME280;51758;52.218;5.172;2023-01-09T04:05:53;97984.22;;;4.62;100.00
65173;BME280;51758;52.218;5.172;2023-01-09T04:08:22;97981.25;;;4.58;100.00
65173;BME280;51758;52.218;5.172;2023-01-09T04:10:50;97986.00;;;4.61;100.00
65173;BME280;51758;52.218;5.172;2023-01-09T04:13:18;97981.63;;;4.62;100.00
65173;BME280;51758;52.218;5.172;2023-01-09T04:15:46;97976.47;;;4.62;100.00
65173;BME280;51758;52.218;5.172;2023-01-09T04:18:14;97977.66;;;4.59;100.00
65173;BME280;51758;52.218;5.172;2023-01-09T04:20:45;97977.53;;;4.54;100.00
65173;BME280;51758;52.218;5.172;2023-01-09T04:23:13;97953.09;;;4.50;100.00
65173;BME280;51758;52.218;5.172;2023-01-09T04:25:42;97962.63;;;4.50;100.00
65173;BME280;51758;52.218;5.172;2023-01-09T04:28:09;97966.19;;;4.55;100.00
65173;BME280;51758;52.218;5.172;2023-01-09T04:30:37;97959.44;;;4.54;100.00
65173;BME280;51758;52.218;5.172;2023-01-09T04:33:05;97950.69;;;4.55;100.00
65173;BME280;51758;52.218;5.172;2023-01-09T04:35:32;97951.47;;;4.56;100.00
65173;BME280;51758;52.218;5.172;2023-01-09T04:38:00;97959.00;;;4.57;100.00
65173;BME280;51758;52.218;5.172;2023-01-09T04:40:28;97950.41;;;4.63;100.00
65173;BME280;51758;52.218;5.172;2023-01-09T04:42:57;97951.00;;;4.65;100.00
65173;BME280;51758;52.218;5.172;2023-01-09T04:45:24;97941.25;;;4.67;100.00
65173;BME280;51758;52.218;5.172;2023-01-09T04:47:52;97945.44;;;4.68;100.00
65173;BME280;51758;52.218;5.172;2023-01-09T04:50:20;97939.03;;;4.71;100.00
65173;BME280;51758;52.218;5.172;2023-01-09T04:52:47;97938.22;;;4.71;100.00
65173;BME280;51758;52.218;5.172;2023-01-09T04:55:15;97936.66;;;4.69;100.00
65173;BME280;51758;52.218;5.172;2023-01-09T04:57:43;97935.44;;;4.72;100.00
65173;BME280;51758;52.218;5.172;2023-01-09T05:00:12;97928.88;;;4.69;100.00
65173;BME280;51758;52.218;5.172;2023-01-09T05:02:40;97937.81;;;4.74;100.00
65173;BME280;51758;52.218;5.172;2023-01-09T05:05:09;97937.41;;;4.77;100.00
65173;BME280;51758;52.218;5.172;2023-01-09T05:07:37;97932.38;;;4.82;100.00
65173;BME280;51758;52.218;5.172;2023-01-09T05:10:06;97930.75;;;4.87;100.00
65173;BME280;51758;52.218;5.172;2023-01-09T05:12:35;97919.56;;;4.93;100.00
65173;BME280;51758;52.218;5.172;2023-01-09T05:15:03;97920.56;;;4.92;100.00
65173;BME280;51758;52.218;5.172;2023-01-09T05:17:32;97919.34;;;4.95;100.00
65173;BME280;51758;52.218;5.172;2023-01-09T05:20:00;97923.09;;;4.99;100.00
65173;BME280;51758;52.218;5.172;2023-01-09T05:22:27;97927.84;;;5.02;100.00
65173;BME280;51758;52.218;5.172;2023-01-09T05:24:55;97922.09;;;5.00;100.00
65173;BME280;51758;52.218;5.172;2023-01-09T05:27:25;97928.06;;;5.00;100.00
65173;BME280;51758;52.218;5.172;2023-01-09T05:29:53;97925.47;;;5.00;100.00
65173;BME280;51758;52.218;5.172;2023-01-09T05:32:21;97926.19;;;5.08;100.00
65173;BME280;51758;52.218;5.172;2023-01-09T05:34:50;97931.16;;;5.09;100.00
65173;BME280;51758;52.218;5.172;2023-01-09T05:37:18;97928.13;;;5.12;100.00
65173;BME280;51758;52.218;5.172;2023-01-09T05:39:45;97918.16;;;5.16;100.00
65173;BME280;51758;52.218;5.172;2023-01-09T05:42:13;97922.13;;;5.18;100.00
65173;BME280;51758;52.218;5.172;2023-01-09T05:44:40;97921.34;;;5.18;100.00
65173;BME280;51758;52.218;5.172;2023-01-09T05:47:08;97912.03;;;5.10;100.00
65173;BME280;51758;52.218;5.172;2023-01-09T05:49:36;97922.91;;;5.19;100.00
65173;BME280;51758;52.218;5.172;2023-01-09T05:52:05;97918.53;;;5.19;100.00
65173;BME280;51758;52.218;5.172;2023-01-09T05:54:33;97928.44;;;5.22;100.00
65173;BME280;51758;52.218;5.172;2023-01-09T05:57:01;97919.47;;;5.25;100.00
65173;BME280;51758;52.218;5.172;2023-01-09T05:59:28;97927.00;;;5.26;100.00
65173;BME280;51758;52.218;5.172;2023-01-09T06:01:56;97923.63;;;5.26;100.00
65173;BME280;51758;52.218;5.172;2023-01-09T06:04:24;97924.78;;;5.30;100.00
65173;BME280;51758;52.218;5.172;2023-01-09T06:06:55;97920.41;;;5.30;100.00
65173;BME280;51758;52.218;5.172;2023-01-09T06:09:24;97918.63;;;5.31;100.00
65173;BME280;51758;52.218;5.172;2023-01-09T06:11:52;97917.03;;;5.30;100.00
65173;BME280;51758;52.218;5.172;2023-01-09T06:14:20;97914.56;;;5.35;100.00
65173;BME280;51758;52.218;5.172;2023-01-09T06:16:48;97918.75;;;5.36;100.00
65173;BME280;51758;52.218;5.172;2023-01-09T06:19:16;97931.84;;;5.41;100.00
65173;BME280;51758;52.218;5.172;2023-01-09T06:21:43;97919.31;;;5.38;100.00
65173;BME280;51758;52.218;5.172;2023-01-09T06:24:11;97928.81;;;5.44;100.00
65173;BME280;51758;52.218;5.172;2023-01-09T06:26:40;97929.59;;;5.45;100.00
65173;BME280;51758;52.218;5.172;2023-01-09T06:29:08;97929.84;;;5.43;100.00
65173;BME280;51758;52.218;5.172;2023-01-09T06:31:35;97931.25;;;5.39;100.00
65173;BME280;51758;52.218;5.172;2023-01-09T06:34:03;97905.16;;;5.22;100.00
65173;BME280;51758;52.218;5.172;2023-01-09T06:36:31;97926.28;;;5.37;100.00
65173;BME280;51758;52.218;5.172;2023-01-09T06:38:58;97920.81;;;5.46;100.00
65173;BME280;51758;52.218;5.172;2023-01-09T06:41:26;97917.69;;;5.44;100.00
65173;BME280;51758;52.218;5.172;2023-01-09T06:43:55;97905.31;;;5.46;100.00
65173;BME280;51758;52.218;5.172;2023-01-09T06:46:23;97917.69;;;5.44;100.00
65173;BME280;51758;52.218;5.172;2023-01-09T06:48:51;97899.56;;;5.44;100.00
65173;BME280;51758;52.218;5.172;2023-01-09T06:51:18;97871.31;;;5.24;100.00
65173;BME280;51758;52.218;5.172;2023-01-09T06:53:46;97900.69;;;5.48;100.00
65173;BME280;51758;52.218;5.172;2023-01-09T06:56:14;97898.13;;;5.48;100.00
65173;BME280;51758;52.218;5.172;2023-01-09T06:58:41;97901.44;;;5.55;100.00
65173;BME280;51758;52.218;5.172;2023-01-09T07:01:10;97888.91;;;5.52;100.00
65173;BME280;51758;52.218;5.172;2023-01-09T07:03:39;97882.09;;;5.39;100.00
65173;BME280;51758;52.218;5.172;2023-01-09T07:06:07;97908.09;;;5.62;100.00
65173;BME280;51758;52.218;5.172;2023-01-09T07:08:35;97851.28;;;5.37;100.00
65173;BME280;51758;52.218;5.172;2023-01-09T07:11:02;97897.69;;;5.69;100.00
65173;BME280;51758;52.218;5.172;2023-01-09T07:13:30;97861.88;;;5.48;100.00
65173;BME280;51758;52.218;5.172;2023-01-09T07:15:58;97892.84;;;5.72;100.00
65173;BME280;51758;52.218;5.172;2023-01-09T07:18:30;97689.00;;;4.30;100.00
65173;BME280;51758;52.218;5.172;2023-01-09T07:20:57;97895.91;;;5.69;100.00
65173;BME280;51758;52.218;5.172;2023-01-09T07:23:27;97902.63;;;5.70;100.00
65173;BME280;51758;52.218;5.172;2023-01-09T07:25:58;97871.59;;;5.34;100.00
65173;BME280;51758;52.218;5.172;2023-01-09T07:28:26;97898.25;;;5.71;100.00
65173;BME280;51758;52.218;5.172;2023-01-09T07:30:54;97896.09;;;5.68;100.00
65173;BME280;51758;52.218;5.172;2023-01-09T07:33:22;97895.78;;;5.76;100.00
65173;BME280;51758;52.218;5.172;2023-01-09T07:35:51;97893.84;;;5.71;100.00
65173;BME280;51758;52.218;5.172;2023-01-09T07:38:18;97888.47;;;5.73;100.00
65173;BME280;51758;52.218;5.172;2023-01-09T07:40:46;97893.41;;;5.74;100.00
65173;BME280;51758;52.218;5.172;2023-01-09T07:43:14;97892.78;;;5.79;100.00
65173;BME280;51758;52.218;5.172;2023-01-09T07:45:41;97900.13;;;5.82;100.00
65173;BME280;51758;52.218;5.172;2023-01-09T07:48:09;97899.53;;;5.80;100.00
65173;BME280;51758;52.218;5.172;2023-01-09T07:50:37;97886.13;;;5.83;100.00
65173;BME280;51758;52.218;5.172;2023-01-09T07:53:06;97884.88;;;5.92;100.00
65173;BME280;51758;52.218;5.172;2023-01-09T07:55:33;97894.56;;;5.97;100.00
65173;BME280;51758;52.218;5.172;2023-01-09T07:58:01;97886.00;;;5.96;100.00
65173;BME280;51758;52.218;5.172;2023-01-09T08:00:28;97894.91;;;6.00;100.00
65173;BME280;51758;52.218;5.172;2023-01-09T08:02:58;97899.66;;;6.03;100.00
65173;BME280;51758;52.218;5.172;2023-01-09T08:05:26;97886.81;;;6.08;100.00
65173;BME280;51758;52.218;5.172;2023-01-09T08:07:54;97902.19;;;6.22;100.00
65173;BME280;51758;52.218;5.172;2023-01-09T08:10:23;97900.38;;;6.22;100.00
65173;BME280;51758;52.218;5.172;2023-01-09T08:12:50;97894.75;;;6.25;100.00
65173;BME280;51758;52.218;5.172;2023-01-09T08:15:18;97898.94;;;6.26;100.00
65173;BME280;51758;52.218;5.172;2023-01-09T08:17:46;97895.19;;;6.22;100.00
65173;BME280;51758;52.218;5.172;2023-01-09T08:20:15;97896.56;;;6.25;100.00
65173;BME280;51758;52.218;5.172;2023-01-09T08:22:45;97913.91;;;6.24;100.00
65173;BME280;51758;52.218;5.172;2023-01-09T08:25:16;97906.72;;;6.26;100.00
65173;BME280;51758;52.218;5.172;2023-01-09T08:27:45;97906.06;;;6.31;100.00
65173;BME280;51758;52.218;5.172;2023-01-09T08:30:14;97911.03;;;6.32;100.00
65173;BME280;51758;52.218;5.172;2023-01-09T08:32:42;97917.22;;;6.31;100.00
65173;BME280;51758;52.218;5.172;2023-01-09T08:35:09;97919.00;;;6.31;100.00
65173;BME280;51758;52.218;5.172;2023-01-09T08:37:37;97916.53;;;6.36;100.00
65173;BME280;51758;52.218;5.172;2023-01-09T08:40:06;97913.28;;;6.40;100.00
65173;BME280;51758;52.218;5.172;2023-01-09T08:42:33;97923.53;;;6.47;100.00
65173;BME280;51758;52.218;5.172;2023-01-09T08:45:20;97929.88;;;6.51;100.00
65173;BME280;51758;52.218;5.172;2023-01-09T08:48:06;97935.06;;;6.51;100.00
65173;BME280;51758;52.218;5.172;2023-01-09T08:50:33;97932.13;;;6.59;100.00
65173;BME280;51758;52.218;5.172;2023-01-09T08:53:01;97938.03;;;6.66;100.00
65173;BME280;51758;52.218;5.172;2023-01-09T08:55:29;97940.50;;;6.73;100.00
65173;BME280;51758;52.218;5.172;2023-01-09T08:57:56;97951.66;;;6.73;100.00
65173;BME280;51758;52.218;5.172;2023-01-09T09:00:26;97954.03;;;6.75;100.00
65173;BME280;51758;52.218;5.172;2023-01-09T09:02:55;97950.44;;;6.88;100.00
65173;BME280;51758;52.218;5.172;2023-01-09T09:05:24;97953.81;;;6.88;100.00
65173;BME280;51758;52.218;5.172;2023-01-09T09:07:53;97965.78;;;6.89;100.00
65173;BME280;51758;52.218;5.172;2023-01-09T09:10:22;97970.31;;;6.94;100.00
65173;BME280;51758;52.218;5.172;2023-01-09T09:12:52;97966.91;;;6.93;100.00
65173;BME280;51758;52.218;5.172;2023-01-09T09:15:20;97971.88;;;6.95;100.00
65173;BME280;51758;52.218;5.172;2023-01-09T09:17:52;97983.38;;;6.99;100.00
65173;BME280;51758;52.218;5.172;2023-01-09T09:20:21;97985.66;;;7.07;100.00
65173;BME280;51758;52.218;5.172;2023-01-09T09:22:49;98003.91;;;7.12;100.00
65173;BME280;51758;52.218;5.172;2023-01-09T09:25:17;98009.91;;;7.12;100.00
65173;BME280;51758;52.218;5.172;2023-01-09T09:27:46;98026.03;;;7.03;100.00
65173;BME280;51758;52.218;5.172;2023-01-09T09:30:15;98028.59;;;6.91;100.00
65173;BME280;51758;52.218;5.172;2023-01-09T09:32:44;98041.09;;;6.82;100.00
65173;BME280;51758;52.218;5.172;2023-01-09T09:35:13;98051.69;;;6.81;100.00
65173;BME280;51758;52.218;5.172;2023-01-09T09:37:51;98070.13;;;6.73;100.00
65173;BME280;51758;52.218;5.172;2023-01-09T09:40:33;98064.94;;;6.73;100.00
65173;BME280;51758;52.218;5.172;2023-01-09T09:43:21;98065.84;;;6.67;100.00
65173;BME280;51758;52.218;5.172;2023-01-09T09:46:26;98068.91;;;6.75;100.00
65173;BME280;51758;52.218;5.172;2023-01-09T09:48:59;98081.09;;;6.75;100.00
65173;BME280;51758;52.218;5.172;2023-01-09T09:51:37;98077.25;;;6.77;100.00
65173;BME280;51758;52.218;5.172;2023-01-09T09:54:12;98089.44;;;6.77;100.00
65173;BME280;51758;52.218;5.172;2023-01-09T09:56:46;98069.44;;;6.66;100.00
65173;BME280;51758;52.218;5.172;2023-01-09T09:59:17;98102.88;;;6.86;100.00
65173;BME280;51758;52.218;5.172;2023-01-09T10:01:50;98096.25;;;6.90;100.00
65173;BME280;51758;52.218;5.172;2023-01-09T10:04:21;98104.97;;;6.95;100.00
65173;BME280;51758;52.218;5.172;2023-01-09T10:06:53;98101.13;;;6.98;100.00
65173;BME280;51758;52.218;5.172;2023-01-09T10:09:31;98109.69;;;6.98;100.00
65173;BME280;51758;52.218;5.172;2023-01-09T10:12:10;98102.03;;;7.03;100.00
65173;BME280;51758;52.218;5.172;2023-01-09T10:14:40;98085.28;;;7.17;100.00
65173;BME280;51758;52.218;5.172;2023-01-09T10:17:17;98085.28;;;7.17;100.00
65173;BME280;51758;52.218;5.172;2023-01-09T10:20:18;98085.97;;;7.25;100.00
65173;BME280;51758;52.218;5.172;2023-01-09T10:22:58;98084.50;;;7.29;100.00
65173;BME280;51758;52.218;5.172;2023-01-09T10:25:34;98090.50;;;7.41;100.00
65173;BME280;51758;52.218;5.172;2023-01-09T10:28:21;98089.28;;;7.43;100.00
65173;BME280;51758;52.218;5.172;2023-01-09T10:30:58;98090.84;;;7.44;100.00
65173;BME280;51758;52.218;5.172;2023-01-09T10:33:36;98090.28;;;7.66;100.00
65173;BME280;51758;52.218;5.172;2023-01-09T10:36:32;98016.00;;;7.18;100.00
65173;BME280;51758;52.218;5.172;2023-01-09T10:39:09;98100.34;;;7.62;100.00
65173;BME280;51758;52.218;5.172;2023-01-09T10:41:43;98109.25;;;7.66;100.00
65173;BME280;51758;52.218;5.172;2023-01-09T10:44:20;98121.00;;;7.69;100.00
65173;BME280;51758;52.218;5.172;2023-01-09T10:46:52;98129.81;;;7.68;100.00
65173;BME280;51758;52.218;5.172;2023-01-09T10:49:22;98138.75;;;7.72;100.00
65173;BME280;51758;52.218;5.172;2023-01-09T10:51:52;98147.88;;;7.74;100.00
65173;BME280;51758;52.218;5.172;2023-01-09T10:54:28;98171.47;;;7.73;100.00
65173;BME280;51758;52.218;5.172;2023-01-09T10:56:59;98187.41;;;7.76;100.00
65173;BME280;51758;52.218;5.172;2023-01-09T10:59:28;98216.19;;;7.75;100.00
65173;BME280;51758;52.218;5.172;2023-01-09T11:01:56;98215.31;;;7.81;100.00
65173;BME280;51758;52.218;5.172;2023-01-09T11:04:26;98230.91;;;7.81;100.00
65173;BME280;51758;52.218;5.172;2023-01-09T11:06:59;98245.69;;;7.80;100.00
65173;BME280;51758;52.218;5.172;2023-01-09T11:09:56;98246.69;;;7.79;100.00
65173;BME280;51758;52.218;5.172;2023-01-09T11:12:26;98262.94;;;7.75;100.00
65173;BME280;51758;52.218;5.172;2023-01-09T11:14:54;98284.44;;;7.82;100.00
65173;BME280;51758;52.218;5.172;2023-01-09T11:17:25;98307.59;;;7.83;100.00
65173;BME280;51758;52.218;5.172;2023-01-09T11:20:00;98306.09;;;7.76;100.00
65173;BME280;51758;52.218;5.172;2023-01-09T11:22:28;98311.09;;;7.89;100.00
65173;BME280;51758;52.218;5.172;2023-01-09T11:25:12;98312.25;;;7.93;100.00
65173;BME280;51758;52.218;5.172;2023-01-09T11:27:40;98322.44;;;8.06;100.00
65173;BME280;51758;52.218;5.172;2023-01-09T11:30:22;98321.56;;;8.24;100.00
65173;BME280;51758;52.218;5.172;2023-01-09T11:32:54;98332.25;;;8.34;100.00
65173;BME280;51758;52.218;5.172;2023-01-09T11:35:25;98344.88;;;8.31;100.00
65173;BME280;51758;52.218;5.172;2023-01-09T11:38:02;98353.59;;;8.36;100.00
65173;BME280;51758;52.218;5.172;2023-01-09T11:40:36;98368.13;;;8.25;100.00
65173;BME280;51758;52.218;5.172;2023-01-09T11:43:13;98380.13;;;8.26;100.00
65173;BME280;51758;52.218;5.172;2023-01-09T11:45:45;98391.81;;;8.06;100.00
65173;BME280;51758;52.218;5.172;2023-01-09T11:48:38;98413.09;;;8.26;100.00
65173;BME280;51758;52.218;5.172;2023-01-09T11:51:17;98410.63;;;8.19;100.00
65173;BME280;51758;52.218;5.172;2023-01-09T11:53:57;98421.66;;;8.33;100.00
65173;BME280;51758;52.218;5.172;2023-01-09T11:56:28;98424.53;;;8.25;100.00
65173;BME280;51758;52.218;5.172;2023-01-09T11:58:57;98433.06;;;8.14;100.00
65173;BME280;51758;52.218;5.172;2023-01-09T12:04:27;98436.84;;;8.00;100.00
65173;BME280;51758;52.218;5.172;2023-01-09T12:07:24;98450.00;;;8.05;100.00
65173;BME280;51758;52.218;5.172;2023-01-09T12:10:06;98462.50;;;7.96;100.00
65173;BME280;51758;52.218;5.172;2023-01-09T12:12:47;98469.66;;;7.64;100.00
65173;BME280;51758;52.218;5.172;2023-01-09T12:15:23;98481.97;;;7.50;100.00
65173;BME280;51758;52.218;5.172;2023-01-09T12:20:56;98479.91;;;7.16;100.00
65173;BME280;51758;52.218;5.172;2023-01-09T12:23:39;98485.81;;;7.23;100.00
65173;BME280;51758;52.218;5.172;2023-01-09T12:26:15;98465.72;;;6.94;100.00
65173;BME280;51758;52.218;5.172;2023-01-09T12:29:16;98480.00;;;7.28;100.00
65173;BME280;51758;52.218;5.172;2023-01-09T12:31:59;98467.69;;;7.41;100.00
65173;BME280;51758;52.218;5.172;2023-01-09T12:34:49;98468.22;;;7.68;100.00
65173;BME280;51758;52.218;5.172;2023-01-09T12:37:37;98470.81;;;7.68;100.00
65173;BME280;51758;52.218;5.172;2023-01-09T12:40:31;98467.63;;;7.66;100.00
65173;BME280;51758;52.218;5.172;2023-01-09T12:43:09;98470.72;;;7.75;100.00
65173;BME280;51758;52.218;5.172;2023-01-09T12:45:53;98472.25;;;7.82;100.00
65173;BME280;51758;52.218;5.172;2023-01-09T12:48:35;98482.34;;;7.72;100.00
65173;BME280;51758;52.218;5.172;2023-01-09T12:51:23;98489.25;;;7.60;100.00
65173;BME280;51758;52.218;5.172;2023-01-09T12:53:58;98492.78;;;7.47;100.00
65173;BME280;51758;52.218;5.172;2023-01-09T12:56:31;98495.03;;;7.44;100.00
65173;BME280;51758;52.218;5.172;2023-01-09T12:59:05;98495.25;;;7.17;100.00
65173;BME280;51758;52.218;5.172;2023-01-09T13:01:41;98508.59;;;6.96;100.00
65173;BME280;51758;52.218;5.172;2023-01-09T13:04:14;98503.25;;;6.91;100.00
65173;BME280;51758;52.218;5.172;2023-01-09T13:06:48;98503.75;;;6.75;100.00
65173;BME280;51758;52.218;5.172;2023-01-09T13:09:23;98508.47;;;6.84;100.00
65173;BME280;51758;52.218;5.172;2023-01-09T13:12:00;98503.66;;;6.88;100.00
65173;BME280;51758;52.218;5.172;2023-01-09T13:14:38;98506.53;;;7.05;100.00
65173;BME280;51758;52.218;5.172;2023-01-09T13:17:16;98502.03;;;7.18;100.00
65173;BME280;51758;52.218;5.172;2023-01-09T13:19:45;98506.94;;;7.27;100.00
65173;BME280;51758;52.218;5.172;2023-01-09T13:22:14;98497.25;;;7.40;100.00
65173;BME280;51758;52.218;5.172;2023-01-09T13:24:55;98490.19;;;7.47;100.00
65173;BME280;51758;52.218;5.172;2023-01-09T13:27:30;98484.50;;;7.57;100.00
65173;BME280;51758;52.218;5.172;2023-01-09T13:30:04;98483.59;;;7.70;100.00
65173;BME280;51758;52.218;5.172;2023-01-09T13:32:41;98484.72;;;7.74;100.00
65173;BME280;51758;52.218;5.172;2023-01-09T13:35:16;98480.63;;;7.84;100.00